Hauptseite
METAR-TAF:

METAR-TAF

Flughäfen :

Bergamo, Italien

Flughafen Bergamo

Breite: 45-40N, Länge: 009-42E, Höhe: 238 m

Beobachtung

Neuester Wetterbericht von vor 16 Minuten, um 14:50 UTC
Wind 5 kt aus Süd/Südost
Temperatur 9°C
Luftfeuchtigkeit 61%
Luftdruck 1008 hPa
Sichtweite 10 km oder mehr
Leicht bewölkt in der Höhe von 11000 ft

METAR: LIME 191450Z 16005KT 9999 FEW110 09/02 Q1008 NOSIG

Zeit: 16:06 (15:06 UTC)

Prognose

Neuester Wetterbericht von vor 4 Stunden und 6 Minuten, um 11:00 UTC
Gültige Prognose vom 19 um 12 UTC bis 20 um 12 UTC
Wind 5 kt aus unterschiedlichen Richtungen
Sichtweite 10 km oder mehr
keine Wolken unter 1500 m und keine Kumulonimbus oder Gewitterwolken

TAF: LIME 191100Z 1912/2012 VRB05KT CAVOK

Wetterbeobachtungen und Prognosen von mehr als 4000 Flughäfen (METAR und TAF Bericht).

Die verfügbaren Stationen werden durch gelbe und rote Markierungen auf der Karte dargestellt.

Führen Sie die Maus auf sie, um den Namen der Station zu sehen.

Darauf klicken, um die Beobachtung von Wetterbeobachtungen und Prognosen zu sehen.

Um die Karte zu ändern : klicken Sie auf den grünen Tasten mit einem schwarzen Kreuz Zum Vergrößern, auf den grünen Button mit einem Gedankenstrich zu verkleinern, oder auf die grünen Pfeile für benachbarte Karten.


METAR-TAF: